sensor_id;sensor_type;location;lat;lon;timestamp;P1;durP1;ratioP1;P2;durP2;ratioP2
24567;SDS011;12731;52.182;8.716;2022-09-20T00:00:23;11.85;;;2.38;;
24567;SDS011;12731;52.182;8.716;2022-09-20T00:02:50;11.57;;;2.58;;
24567;SDS011;12731;52.182;8.716;2022-09-20T00:05:16;14.30;;;2.65;;
24567;SDS011;12731;52.182;8.716;2022-09-20T00:07:43;10.85;;;2.80;;
24567;SDS011;12731;52.182;8.716;2022-09-20T00:10:10;14.50;;;3.00;;
24567;SDS011;12731;52.182;8.716;2022-09-20T00:12:37;13.75;;;2.63;;
24567;SDS011;12731;52.182;8.716;2022-09-20T00:15:04;11.90;;;2.20;;
24567;SDS011;12731;52.182;8.716;2022-09-20T00:17:30;9.73;;;2.58;;
24567;SDS011;12731;52.182;8.716;2022-09-20T00:19:57;17.30;;;2.47;;
24567;SDS011;12731;52.182;8.716;2022-09-20T00:22:23;17.05;;;3.25;;
24567;SDS011;12731;52.182;8.716;2022-09-20T00:24:50;11.40;;;2.28;;
24567;SDS011;12731;52.182;8.716;2022-09-20T00:27:16;12.20;;;2.35;;
24567;SDS011;12731;52.182;8.716;2022-09-20T00:29:43;13.85;;;2.60;;
24567;SDS011;12731;52.182;8.716;2022-09-20T00:32:09;9.38;;;2.72;;
24567;SDS011;12731;52.182;8.716;2022-09-20T00:34:35;16.23;;;2.95;;
24567;SDS011;12731;52.182;8.716;2022-09-20T00:37:20;11.30;;;2.75;;
24567;SDS011;12731;52.182;8.716;2022-09-20T00:39:47;11.60;;;2.45;;
24567;SDS011;12731;52.182;8.716;2022-09-20T00:42:13;11.32;;;2.47;;
24567;SDS011;12731;52.182;8.716;2022-09-20T00:47:30;11.90;;;2.35;;
24567;SDS011;12731;52.182;8.716;2022-09-20T00:50:06;11.25;;;2.22;;
24567;SDS011;12731;52.182;8.716;2022-09-20T00:52:39;10.40;;;2.20;;
24567;SDS011;12731;52.182;8.716;2022-09-20T00:55:09;12.43;;;2.60;;
24567;SDS011;12731;52.182;8.716;2022-09-20T00:57:36;11.43;;;2.22;;
24567;SDS011;12731;52.182;8.716;2022-09-20T01:00:05;12.25;;;2.15;;
24567;SDS011;12731;52.182;8.716;2022-09-20T01:02:33;12.15;;;2.20;;
24567;SDS011;12731;52.182;8.716;2022-09-20T01:05:01;12.80;;;2.45;;
24567;SDS011;12731;52.182;8.716;2022-09-20T01:07:27;10.00;;;2.45;;
24567;SDS011;12731;52.182;8.716;2022-09-20T01:09:54;13.35;;;2.60;;
24567;SDS011;12731;52.182;8.716;2022-09-20T01:12:22;8.35;;;2.15;;
24567;SDS011;12731;52.182;8.716;2022-09-20T01:14:51;15.05;;;2.60;;
24567;SDS011;12731;52.182;8.716;2022-09-20T01:17:19;14.00;;;2.38;;
24567;SDS011;12731;52.182;8.716;2022-09-20T01:19:54;15.75;;;2.35;;
24567;SDS011;12731;52.182;8.716;2022-09-20T01:27:48;11.40;;;2.22;;
24567;SDS011;12731;52.182;8.716;2022-09-20T01:30:20;11.88;;;2.47;;
24567;SDS011;12731;52.182;8.716;2022-09-20T01:35:30;9.48;;;2.42;;
24567;SDS011;12731;52.182;8.716;2022-09-20T01:40:42;8.52;;;2.65;;
24567;SDS011;12731;52.182;8.716;2022-09-20T01:46:15;11.45;;;2.35;;
24567;SDS011;12731;52.182;8.716;2022-09-20T01:48:55;11.20;;;2.30;;
24567;SDS011;12731;52.182;8.716;2022-09-20T01:57:36;11.35;;;2.17;;
24567;SDS011;12731;52.182;8.716;2022-09-20T02:00:20;11.60;;;2.05;;
24567;SDS011;12731;52.182;8.716;2022-09-20T02:11:58;9.80;;;2.05;;
24567;SDS011;12731;52.182;8.716;2022-09-20T02:16:43;12.15;;;2.28;;
24567;SDS011;12731;52.182;8.716;2022-09-20T02:21:55;9.27;;;1.70;;
24567;SDS011;12731;52.182;8.716;2022-09-20T02:33:01;12.35;;;2.25;;
24567;SDS011;12731;52.182;8.716;2022-09-20T02:35:40;10.35;;;2.28;;
24567;SDS011;12731;52.182;8.716;2022-09-20T02:38:21;10.00;;;2.10;;
24567;SDS011;12731;52.182;8.716;2022-09-20T02:49:59;10.27;;;2.30;;
24567;SDS011;12731;52.182;8.716;2022-09-20T02:58:51;9.82;;;1.98;;
24567;SDS011;12731;52.182;8.716;2022-09-20T03:04:25;9.43;;;2.22;;
24567;SDS011;12731;52.182;8.716;2022-09-20T03:10:16;6.10;;;1.50;;
24567;SDS011;12731;52.182;8.716;2022-09-20T03:12:51;6.20;;;1.70;;
24567;SDS011;12731;52.182;8.716;2022-09-20T03:18:15;6.10;;;1.85;;
24567;SDS011;12731;52.182;8.716;2022-09-20T03:42:32;12.38;;;1.95;;
24567;SDS011;12731;52.182;8.716;2022-09-20T04:04:49;12.23;;;2.15;;
24567;SDS011;12731;52.182;8.716;2022-09-20T04:15:31;8.90;;;1.90;;
24567;SDS011;12731;52.182;8.716;2022-09-20T04:18:13;11.18;;;1.92;;
24567;SDS011;12731;52.182;8.716;2022-09-20T04:20:45;8.77;;;2.17;;
24567;SDS011;12731;52.182;8.716;2022-09-20T04:26:08;9.60;;;2.00;;
24567;SDS011;12731;52.182;8.716;2022-09-20T04:31:32;5.65;;;1.80;;
24567;SDS011;12731;52.182;8.716;2022-09-20T04:34:03;10.30;;;2.38;;
24567;SDS011;12731;52.182;8.716;2022-09-20T04:36:36;11.52;;;2.33;;
24567;SDS011;12731;52.182;8.716;2022-09-20T04:47:46;11.07;;;2.45;;
24567;SDS011;12731;52.182;8.716;2022-09-20T04:56:00;7.53;;;2.08;;
24567;SDS011;12731;52.182;8.716;2022-09-20T04:58:36;11.45;;;2.58;;
24567;SDS011;12731;52.182;8.716;2022-09-20T05:04:06;9.63;;;2.35;;
24567;SDS011;12731;52.182;8.716;2022-09-20T05:09:29;11.93;;;3.33;;
24567;SDS011;12731;52.182;8.716;2022-09-20T05:20:58;11.20;;;3.85;;
24567;SDS011;12731;52.182;8.716;2022-09-20T05:26:32;13.88;;;3.42;;
24567;SDS011;12731;52.182;8.716;2022-09-20T05:32:18;13.63;;;3.55;;
24567;SDS011;12731;52.182;8.716;2022-09-20T05:34:56;12.77;;;3.47;;
24567;SDS011;12731;52.182;8.716;2022-09-20T05:37:32;13.48;;;3.38;;
24567;SDS011;12731;52.182;8.716;2022-09-20T05:40:10;14.05;;;3.13;;
24567;SDS011;12731;52.182;8.716;2022-09-20T05:48:33;13.25;;;3.30;;
24567;SDS011;12731;52.182;8.716;2022-09-20T05:56:50;11.95;;;3.08;;
24567;SDS011;12731;52.182;8.716;2022-09-20T05:59:49;10.35;;;3.33;;
24567;SDS011;12731;52.182;8.716;2022-09-20T06:11:10;14.15;;;2.90;;
24567;SDS011;12731;52.182;8.716;2022-09-20T06:13:49;12.68;;;2.90;;
24567;SDS011;12731;52.182;8.716;2022-09-20T06:16:27;12.63;;;2.92;;
24567;SDS011;12731;52.182;8.716;2022-09-20T06:19:03;8.43;;;3.00;;
24567;SDS011;12731;52.182;8.716;2022-09-20T06:21:38;11.80;;;3.08;;
24567;SDS011;12731;52.182;8.716;2022-09-20T06:24:31;8.82;;;2.90;;
24567;SDS011;12731;52.182;8.716;2022-09-20T06:27:13;10.60;;;3.00;;
24567;SDS011;12731;52.182;8.716;2022-09-20T06:29:42;14.68;;;3.17;;
24567;SDS011;12731;52.182;8.716;2022-09-20T06:32:16;12.02;;;2.95;;
24567;SDS011;12731;52.182;8.716;2022-09-20T06:34:43;10.75;;;3.22;;
24567;SDS011;12731;52.182;8.716;2022-09-20T06:43:15;12.32;;;3.40;;
24567;SDS011;12731;52.182;8.716;2022-09-20T06:46:34;12.93;;;2.97;;
24567;SDS011;12731;52.182;8.716;2022-09-20T06:49:01;14.75;;;3.05;;
24567;SDS011;12731;52.182;8.716;2022-09-20T06:51:33;9.60;;;3.10;;
24567;SDS011;12731;52.182;8.716;2022-09-20T06:54:01;13.38;;;2.95;;
24567;SDS011;12731;52.182;8.716;2022-09-20T06:56:29;10.05;;;3.00;;
24567;SDS011;12731;52.182;8.716;2022-09-20T06:58:57;7.80;;;2.70;;
24567;SDS011;12731;52.182;8.716;2022-09-20T07:01:23;10.13;;;2.75;;
24567;SDS011;12731;52.182;8.716;2022-09-20T07:03:56;11.18;;;2.92;;
24567;SDS011;12731;52.182;8.716;2022-09-20T07:06:23;15.00;;;3.15;;
24567;SDS011;12731;52.182;8.716;2022-09-20T07:08:50;10.40;;;2.53;;
24567;SDS011;12731;52.182;8.716;2022-09-20T07:11:16;10.10;;;3.67;;
24567;SDS011;12731;52.182;8.716;2022-09-20T07:13:43;15.93;;;3.30;;
24567;SDS011;12731;52.182;8.716;2022-09-20T07:16:11;10.68;;;2.70;;
24567;SDS011;12731;52.182;8.716;2022-09-20T07:18:39;14.98;;;3.22;;
24567;SDS011;12731;52.182;8.716;2022-09-20T07:21:14;12.50;;;3.17;;
24567;SDS011;12731;52.182;8.716;2022-09-20T07:23:41;12.65;;;3.05;;
24567;SDS011;12731;52.182;8.716;2022-09-20T07:26:21;14.20;;;3.10;;
24567;SDS011;12731;52.182;8.716;2022-09-20T07:28:52;16.27;;;3.28;;
24567;SDS011;12731;52.182;8.716;2022-09-20T07:31:19;10.93;;;3.38;;
24567;SDS011;12731;52.182;8.716;2022-09-20T07:33:46;11.35;;;3.45;;
24567;SDS011;12731;52.182;8.716;2022-09-20T07:36:13;11.00;;;3.45;;
24567;SDS011;12731;52.182;8.716;2022-09-20T07:38:40;11.70;;;3.60;;
24567;SDS011;12731;52.182;8.716;2022-09-20T07:41:07;11.68;;;4.05;;
24567;SDS011;12731;52.182;8.716;2022-09-20T07:43:34;15.63;;;3.45;;
24567;SDS011;12731;52.182;8.716;2022-09-20T07:46:01;10.18;;;3.33;;
24567;SDS011;12731;52.182;8.716;2022-09-20T07:48:28;11.65;;;4.07;;
24567;SDS011;12731;52.182;8.716;2022-09-20T07:51:04;11.87;;;3.30;;
24567;SDS011;12731;52.182;8.716;2022-09-20T07:53:35;15.25;;;3.80;;
24567;SDS011;12731;52.182;8.716;2022-09-20T07:56:03;15.52;;;3.78;;
24567;SDS011;12731;52.182;8.716;2022-09-20T07:58:39;10.35;;;3.78;;
24567;SDS011;12731;52.182;8.716;2022-09-20T08:01:08;12.45;;;3.40;;
24567;SDS011;12731;52.182;8.716;2022-09-20T08:03:36;13.20;;;3.95;;
24567;SDS011;12731;52.182;8.716;2022-09-20T08:06:04;12.10;;;3.50;;
24567;SDS011;12731;52.182;8.716;2022-09-20T08:08:35;9.18;;;3.47;;
24567;SDS011;12731;52.182;8.716;2022-09-20T08:11:13;10.73;;;3.60;;
24567;SDS011;12731;52.182;8.716;2022-09-20T08:13:44;12.40;;;3.90;;
24567;SDS011;12731;52.182;8.716;2022-09-20T08:16:35;12.65;;;4.55;;
24567;SDS011;12731;52.182;8.716;2022-09-20T08:19:04;12.43;;;3.90;;
24567;SDS011;12731;52.182;8.716;2022-09-20T08:21:31;12.13;;;3.60;;
24567;SDS011;12731;52.182;8.716;2022-09-20T08:23:58;16.15;;;4.20;;
24567;SDS011;12731;52.182;8.716;2022-09-20T08:26:26;12.68;;;3.67;;
24567;SDS011;12731;52.182;8.716;2022-09-20T08:28:54;13.95;;;4.57;;
24567;SDS011;12731;52.182;8.716;2022-09-20T08:31:23;10.35;;;3.60;;
24567;SDS011;12731;52.182;8.716;2022-09-20T08:33:51;12.50;;;3.72;;
24567;SDS011;12731;52.182;8.716;2022-09-20T08:36:19;9.10;;;3.28;;
24567;SDS011;12731;52.182;8.716;2022-09-20T08:38:47;9.68;;;2.80;;
24567;SDS011;12731;52.182;8.716;2022-09-20T08:41:34;12.70;;;3.03;;
24567;SDS011;12731;52.182;8.716;2022-09-20T08:44:12;8.45;;;2.58;;
24567;SDS011;12731;52.182;8.716;2022-09-20T08:46:47;9.95;;;3.08;;
24567;SDS011;12731;52.182;8.716;2022-09-20T08:49:21;10.57;;;3.13;;
24567;SDS011;12731;52.182;8.716;2022-09-20T08:51:51;10.00;;;3.63;;
24567;SDS011;12731;52.182;8.716;2022-09-20T08:54:18;10.95;;;3.72;;
24567;SDS011;12731;52.182;8.716;2022-09-20T08:56:44;7.78;;;2.78;;
24567;SDS011;12731;52.182;8.716;2022-09-20T08:59:15;7.45;;;3.05;;
24567;SDS011;12731;52.182;8.716;2022-09-20T09:01:48;12.15;;;3.88;;
24567;SDS011;12731;52.182;8.716;2022-09-20T09:06:43;11.20;;;3.10;;
24567;SDS011;12731;52.182;8.716;2022-09-20T09:09:16;9.30;;;2.78;;
24567;SDS011;12731;52.182;8.716;2022-09-20T09:11:45;13.65;;;2.88;;
24567;SDS011;12731;52.182;8.716;2022-09-20T09:14:32;12.15;;;2.47;;
24567;SDS011;12731;52.182;8.716;2022-09-20T09:17:18;9.48;;;2.25;;
24567;SDS011;12731;52.182;8.716;2022-09-20T09:19:53;7.55;;;2.42;;
24567;SDS011;12731;52.182;8.716;2022-09-20T09:22:29;7.55;;;2.28;;
24567;SDS011;12731;52.182;8.716;2022-09-20T09:25:07;6.25;;;2.20;;
24567;SDS011;12731;52.182;8.716;2022-09-20T09:27:48;8.50;;;2.40;;
24567;SDS011;12731;52.182;8.716;2022-09-20T09:30:32;12.80;;;2.15;;
24567;SDS011;12731;52.182;8.716;2022-09-20T09:35:41;5.97;;;1.45;;
24567;SDS011;12731;52.182;8.716;2022-09-20T09:38:23;5.13;;;1.60;;
24567;SDS011;12731;52.182;8.716;2022-09-20T09:40:55;4.65;;;1.33;;
24567;SDS011;12731;52.182;8.716;2022-09-20T09:43:27;5.50;;;1.88;;
24567;SDS011;12731;52.182;8.716;2022-09-20T09:48:47;10.13;;;1.88;;
24567;SDS011;12731;52.182;8.716;2022-09-20T09:51:31;7.55;;;1.35;;
24567;SDS011;12731;52.182;8.716;2022-09-20T09:53:58;6.35;;;1.50;;
24567;SDS011;12731;52.182;8.716;2022-09-20T09:56:35;6.68;;;2.25;;
24567;SDS011;12731;52.182;8.716;2022-09-20T09:59:28;6.80;;;1.65;;
24567;SDS011;12731;52.182;8.716;2022-09-20T10:04:59;6.07;;;1.88;;
24567;SDS011;12731;52.182;8.716;2022-09-20T10:07:40;6.20;;;1.75;;
24567;SDS011;12731;52.182;8.716;2022-09-20T10:19:17;9.02;;;1.85;;
24567;SDS011;12731;52.182;8.716;2022-09-20T10:21:52;4.25;;;1.42;;
24567;SDS011;12731;52.182;8.716;2022-09-20T10:24:28;4.70;;;1.25;;
24567;SDS011;12731;52.182;8.716;2022-09-20T10:30:03;5.03;;;1.40;;
24567;SDS011;12731;52.182;8.716;2022-09-20T10:38:15;6.10;;;1.42;;
24567;SDS011;12731;52.182;8.716;2022-09-20T10:41:01;6.68;;;1.35;;
24567;SDS011;12731;52.182;8.716;2022-09-20T11:00:59;5.50;;;1.10;;
24567;SDS011;12731;52.182;8.716;2022-09-20T11:06:31;3.97;;;0.70;;
24567;SDS011;12731;52.182;8.716;2022-09-20T11:09:16;2.17;;;0.90;;
24567;SDS011;12731;52.182;8.716;2022-09-20T11:11:46;2.95;;;0.90;;
24567;SDS011;12731;52.182;8.716;2022-09-20T11:14:31;5.07;;;1.05;;
24567;SDS011;12731;52.182;8.716;2022-09-20T11:17:02;3.22;;;0.90;;
24567;SDS011;12731;52.182;8.716;2022-09-20T11:22:17;3.50;;;0.90;;
24567;SDS011;12731;52.182;8.716;2022-09-20T11:24:48;4.90;;;0.88;;
24567;SDS011;12731;52.182;8.716;2022-09-20T11:27:30;3.20;;;0.98;;
24567;SDS011;12731;52.182;8.716;2022-09-20T11:30:02;4.07;;;0.98;;
24567;SDS011;12731;52.182;8.716;2022-09-20T11:32:33;4.22;;;1.00;;
24567;SDS011;12731;52.182;8.716;2022-09-20T11:37:38;1.58;;;0.70;;
24567;SDS011;12731;52.182;8.716;2022-09-20T11:40:14;2.20;;;0.68;;
24567;SDS011;12731;52.182;8.716;2022-09-20T11:42:47;3.25;;;0.90;;
24567;SDS011;12731;52.182;8.716;2022-09-20T11:45:15;4.10;;;0.80;;
24567;SDS011;12731;52.182;8.716;2022-09-20T11:47:43;3.25;;;0.90;;
24567;SDS011;12731;52.182;8.716;2022-09-20T11:53:27;4.10;;;0.75;;
24567;SDS011;12731;52.182;8.716;2022-09-20T11:56:19;5.82;;;1.20;;
24567;SDS011;12731;52.182;8.716;2022-09-20T11:58:49;2.97;;;0.85;;
24567;SDS011;12731;52.182;8.716;2022-09-20T12:01:23;3.00;;;0.60;;
24567;SDS011;12731;52.182;8.716;2022-09-20T12:04:01;4.63;;;0.80;;
24567;SDS011;12731;52.182;8.716;2022-09-20T12:07:35;5.75;;;1.00;;
24567;SDS011;12731;52.182;8.716;2022-09-20T12:09:51;4.53;;;0.90;;
24567;SDS011;12731;52.182;8.716;2022-09-20T12:26:00;2.13;;;0.80;;
24567;SDS011;12731;52.182;8.716;2022-09-20T12:28:42;5.97;;;1.20;;
24567;SDS011;12731;52.182;8.716;2022-09-20T12:36:25;1.80;;;0.70;;
24567;SDS011;12731;52.182;8.716;2022-09-20T12:38:56;4.13;;;0.80;;
24567;SDS011;12731;52.182;8.716;2022-09-20T12:41:25;4.95;;;0.80;;
24567;SDS011;12731;52.182;8.716;2022-09-20T12:43:58;4.13;;;1.00;;
24567;SDS011;12731;52.182;8.716;2022-09-20T12:55:28;4.47;;;0.90;;
24567;SDS011;12731;52.182;8.716;2022-09-20T12:58:02;4.03;;;0.93;;
24567;SDS011;12731;52.182;8.716;2022-09-20T13:00:47;3.17;;;0.75;;
24567;SDS011;12731;52.182;8.716;2022-09-20T13:03:46;2.30;;;0.75;;
24567;SDS011;12731;52.182;8.716;2022-09-20T13:08:42;6.53;;;0.80;;
24567;SDS011;12731;52.182;8.716;2022-09-20T13:19:02;4.15;;;0.80;;
24567;SDS011;12731;52.182;8.716;2022-09-20T13:21:32;3.33;;;0.98;;
24567;SDS011;12731;52.182;8.716;2022-09-20T13:24:02;3.20;;;0.80;;
24567;SDS011;12731;52.182;8.716;2022-09-20T13:26:34;2.83;;;0.75;;
24567;SDS011;12731;52.182;8.716;2022-09-20T13:29:06;2.35;;;0.80;;
24567;SDS011;12731;52.182;8.716;2022-09-20T13:31:34;3.35;;;0.82;;
24567;SDS011;12731;52.182;8.716;2022-09-20T13:34:11;3.95;;;0.93;;
24567;SDS011;12731;52.182;8.716;2022-09-20T13:36:38;4.30;;;1.00;;
24567;SDS011;12731;52.182;8.716;2022-09-20T13:39:05;6.82;;;1.13;;
24567;SDS011;12731;52.182;8.716;2022-09-20T13:41:31;4.35;;;0.88;;
24567;SDS011;12731;52.182;8.716;2022-09-20T13:44:00;3.13;;;0.98;;
24567;SDS011;12731;52.182;8.716;2022-09-20T13:46:28;7.10;;;1.33;;
24567;SDS011;12731;52.182;8.716;2022-09-20T13:49:12;3.65;;;1.20;;
24567;SDS011;12731;52.182;8.716;2022-09-20T13:51:40;3.47;;;1.02;;
24567;SDS011;12731;52.182;8.716;2022-09-20T13:54:27;4.90;;;1.30;;
24567;SDS011;12731;52.182;8.716;2022-09-20T13:56:56;4.07;;;1.20;;
24567;SDS011;12731;52.182;8.716;2022-09-20T13:59:25;4.22;;;1.00;;
24567;SDS011;12731;52.182;8.716;2022-09-20T14:01:56;3.30;;;1.00;;
24567;SDS011;12731;52.182;8.716;2022-09-20T14:04:24;3.75;;;1.10;;
24567;SDS011;12731;52.182;8.716;2022-09-20T14:06:52;4.13;;;1.00;;
24567;SDS011;12731;52.182;8.716;2022-09-20T14:09:29;7.38;;;1.63;;
24567;SDS011;12731;52.182;8.716;2022-09-20T14:11:58;4.72;;;1.10;;
24567;SDS011;12731;52.182;8.716;2022-09-20T14:14:25;6.57;;;1.58;;
24567;SDS011;12731;52.182;8.716;2022-09-20T14:16:53;1.77;;;0.90;;
24567;SDS011;12731;52.182;8.716;2022-09-20T14:19:22;3.35;;;1.17;;
24567;SDS011;12731;52.182;8.716;2022-09-20T14:21:52;1.95;;;1.10;;
24567;SDS011;12731;52.182;8.716;2022-09-20T14:24:29;5.88;;;1.20;;
24567;SDS011;12731;52.182;8.716;2022-09-20T14:26:59;3.20;;;1.23;;
24567;SDS011;12731;52.182;8.716;2022-09-20T14:29:35;4.80;;;1.48;;
24567;SDS011;12731;52.182;8.716;2022-09-20T14:32:10;8.55;;;1.73;;
24567;SDS011;12731;52.182;8.716;2022-09-20T14:34:56;4.03;;;1.23;;
24567;SDS011;12731;52.182;8.716;2022-09-20T14:37:47;4.80;;;1.58;;
24567;SDS011;12731;52.182;8.716;2022-09-20T14:40:20;12.73;;;1.63;;
24567;SDS011;12731;52.182;8.716;2022-09-20T14:42:50;3.78;;;1.50;;
24567;SDS011;12731;52.182;8.716;2022-09-20T14:45:22;4.85;;;1.20;;
24567;SDS011;12731;52.182;8.716;2022-09-20T14:47:55;2.75;;;1.05;;
24567;SDS011;12731;52.182;8.716;2022-09-20T14:50:34;4.65;;;1.20;;
24567;SDS011;12731;52.182;8.716;2022-09-20T14:53:03;4.82;;;1.20;;
24567;SDS011;12731;52.182;8.716;2022-09-20T14:55:32;3.15;;;1.25;;
24567;SDS011;12731;52.182;8.716;2022-09-20T14:58:10;4.72;;;1.23;;
24567;SDS011;12731;52.182;8.716;2022-09-20T15:00:45;4.38;;;1.40;;
24567;SDS011;12731;52.182;8.716;2022-09-20T15:03:14;4.00;;;1.33;;
24567;SDS011;12731;52.182;8.716;2022-09-20T15:05:45;3.58;;;1.35;;
24567;SDS011;12731;52.182;8.716;2022-09-20T15:08:13;4.80;;;1.30;;
24567;SDS011;12731;52.182;8.716;2022-09-20T15:10:40;2.20;;;1.20;;
24567;SDS011;12731;52.182;8.716;2022-09-20T15:13:08;4.85;;;1.40;;
24567;SDS011;12731;52.182;8.716;2022-09-20T15:15:35;3.97;;;1.13;;
24567;SDS011;12731;52.182;8.716;2022-09-20T15:18:02;4.47;;;1.30;;
24567;SDS011;12731;52.182;8.716;2022-09-20T15:20:29;3.95;;;1.17;;
24567;SDS011;12731;52.182;8.716;2022-09-20T15:22:56;3.53;;;1.10;;
24567;SDS011;12731;52.182;8.716;2022-09-20T15:25:23;2.45;;;1.00;;
24567;SDS011;12731;52.182;8.716;2022-09-20T15:27:49;2.78;;;0.82;;
24567;SDS011;12731;52.182;8.716;2022-09-20T15:30:17;3.88;;;1.20;;
24567;SDS011;12731;52.182;8.716;2022-09-20T15:32:45;3.35;;;1.00;;
24567;SDS011;12731;52.182;8.716;2022-09-20T15:35:12;3.22;;;1.10;;
24567;SDS011;12731;52.182;8.716;2022-09-20T15:37:39;3.15;;;0.88;;
24567;SDS011;12731;52.182;8.716;2022-09-20T15:40:06;6.47;;;1.00;;
24567;SDS011;12731;52.182;8.716;2022-09-20T15:42:33;3.28;;;1.00;;
24567;SDS011;12731;52.182;8.716;2022-09-20T15:45:12;2.92;;;1.05;;
24567;SDS011;12731;52.182;8.716;2022-09-20T15:47:38;3.33;;;0.88;;
24567;SDS011;12731;52.182;8.716;2022-09-20T15:50:06;3.78;;;1.30;;
24567;SDS011;12731;52.182;8.716;2022-09-20T15:52:36;2.90;;;1.20;;
24567;SDS011;12731;52.182;8.716;2022-09-20T15:55:06;4.50;;;1.60;;
24567;SDS011;12731;52.182;8.716;2022-09-20T15:57:33;3.35;;;1.70;;
24567;SDS011;12731;52.182;8.716;2022-09-20T16:00:00;4.25;;;1.33;;
24567;SDS011;12731;52.182;8.716;2022-09-20T16:02:26;3.25;;;1.40;;
24567;SDS011;12731;52.182;8.716;2022-09-20T16:04:54;5.50;;;1.40;;
24567;SDS011;12731;52.182;8.716;2022-09-20T16:07:24;5.40;;;2.83;;
24567;SDS011;12731;52.182;8.716;2022-09-20T16:09:54;4.10;;;1.75;;
24567;SDS011;12731;52.182;8.716;2022-09-20T16:12:21;4.13;;;1.90;;
24567;SDS011;12731;52.182;8.716;2022-09-20T16:14:49;2.47;;;1.20;;
24567;SDS011;12731;52.182;8.716;2022-09-20T16:17:16;1.42;;;0.90;;
24567;SDS011;12731;52.182;8.716;2022-09-20T16:19:43;1.88;;;1.23;;
24567;SDS011;12731;52.182;8.716;2022-09-20T16:22:13;3.47;;;1.77;;
24567;SDS011;12731;52.182;8.716;2022-09-20T16:24:40;2.95;;;1.70;;
24567;SDS011;12731;52.182;8.716;2022-09-20T16:27:08;2.60;;;1.10;;
24567;SDS011;12731;52.182;8.716;2022-09-20T16:29:34;2.25;;;0.90;;
24567;SDS011;12731;52.182;8.716;2022-09-20T16:32:01;2.17;;;1.00;;
24567;SDS011;12731;52.182;8.716;2022-09-20T16:34:32;2.20;;;0.70;;
24567;SDS011;12731;52.182;8.716;2022-09-20T16:37:00;2.65;;;0.80;;
24567;SDS011;12731;52.182;8.716;2022-09-20T16:39:32;1.42;;;0.80;;
24567;SDS011;12731;52.182;8.716;2022-09-20T16:42:00;2.00;;;0.60;;
24567;SDS011;12731;52.182;8.716;2022-09-20T16:44:29;2.05;;;0.80;;
24567;SDS011;12731;52.182;8.716;2022-09-20T16:46:59;1.15;;;0.50;;
24567;SDS011;12731;52.182;8.716;2022-09-20T16:49:26;3.15;;;0.90;;
24567;SDS011;12731;52.182;8.716;2022-09-20T16:51:53;1.25;;;0.70;;
24567;SDS011;12731;52.182;8.716;2022-09-20T16:54:20;4.32;;;1.10;;
24567;SDS011;12731;52.182;8.716;2022-09-20T16:56:47;1.92;;;0.80;;
24567;SDS011;12731;52.182;8.716;2022-09-20T16:59:16;2.70;;;1.08;;
24567;SDS011;12731;52.182;8.716;2022-09-20T17:01:44;2.08;;;1.00;;
24567;SDS011;12731;52.182;8.716;2022-09-20T17:04:10;4.25;;;1.45;;
24567;SDS011;12731;52.182;8.716;2022-09-20T17:06:42;1.77;;;1.00;;
24567;SDS011;12731;52.182;8.716;2022-09-20T17:09:09;1.90;;;1.20;;
24567;SDS011;12731;52.182;8.716;2022-09-20T17:11:37;4.32;;;2.00;;
24567;SDS011;12731;52.182;8.716;2022-09-20T17:14:05;19.30;;;13.85;;
24567;SDS011;12731;52.182;8.716;2022-09-20T17:16:32;13.77;;;11.88;;
24567;SDS011;12731;52.182;8.716;2022-09-20T17:19:01;9.70;;;6.97;;
24567;SDS011;12731;52.182;8.716;2022-09-20T17:21:30;5.00;;;3.33;;
24567;SDS011;12731;52.182;8.716;2022-09-20T17:23:57;3.90;;;2.53;;
24567;SDS011;12731;52.182;8.716;2022-09-20T17:26:25;3.08;;;1.70;;
24567;SDS011;12731;52.182;8.716;2022-09-20T17:28:54;4.20;;;1.08;;
24567;SDS011;12731;52.182;8.716;2022-09-20T17:31:22;2.00;;;1.15;;
24567;SDS011;12731;52.182;8.716;2022-09-20T17:33:53;3.22;;;1.45;;
24567;SDS011;12731;52.182;8.716;2022-09-20T17:36:20;2.67;;;1.77;;
24567;SDS011;12731;52.182;8.716;2022-09-20T17:38:51;3.15;;;1.20;;
24567;SDS011;12731;52.182;8.716;2022-09-20T17:41:19;4.43;;;1.30;;
24567;SDS011;12731;52.182;8.716;2022-09-20T17:43:46;1.42;;;1.08;;
24567;SDS011;12731;52.182;8.716;2022-09-20T17:48:49;4.32;;;0.88;;
24567;SDS011;12731;52.182;8.716;2022-09-20T17:51:24;1.80;;;0.98;;
24567;SDS011;12731;52.182;8.716;2022-09-20T17:53:52;3.25;;;1.45;;
24567;SDS011;12731;52.182;8.716;2022-09-20T17:56:21;3.75;;;1.77;;
24567;SDS011;12731;52.182;8.716;2022-09-20T17:58:54;5.90;;;2.17;;
24567;SDS011;12731;52.182;8.716;2022-09-20T18:01:21;3.60;;;1.90;;
24567;SDS011;12731;52.182;8.716;2022-09-20T18:03:48;3.83;;;1.58;;
24567;SDS011;12731;52.182;8.716;2022-09-20T18:06:16;3.13;;;1.58;;
24567;SDS011;12731;52.182;8.716;2022-09-20T18:08:45;4.03;;;1.85;;
24567;SDS011;12731;52.182;8.716;2022-09-20T18:11:15;3.05;;;1.90;;
24567;SDS011;12731;52.182;8.716;2022-09-20T18:13:42;3.33;;;1.52;;
24567;SDS011;12731;52.182;8.716;2022-09-20T18:16:13;5.03;;;1.60;;
24567;SDS011;12731;52.182;8.716;2022-09-20T18:18:41;5.10;;;1.58;;
24567;SDS011;12731;52.182;8.716;2022-09-20T18:26:09;3.83;;;1.75;;
24567;SDS011;12731;52.182;8.716;2022-09-20T18:28:56;3.00;;;1.60;;
24567;SDS011;12731;52.182;8.716;2022-09-20T18:31:28;3.05;;;1.67;;
24567;SDS011;12731;52.182;8.716;2022-09-20T18:34:11;6.57;;;2.45;;
24567;SDS011;12731;52.182;8.716;2022-09-20T18:36:40;3.78;;;1.77;;
24567;SDS011;12731;52.182;8.716;2022-09-20T18:39:07;3.70;;;1.67;;
24567;SDS011;12731;52.182;8.716;2022-09-20T18:41:35;7.35;;;2.10;;
24567;SDS011;12731;52.182;8.716;2022-09-20T18:44:03;4.82;;;1.90;;
24567;SDS011;12731;52.182;8.716;2022-09-20T18:46:32;4.85;;;2.13;;
24567;SDS011;12731;52.182;8.716;2022-09-20T18:49:04;3.88;;;2.30;;
24567;SDS011;12731;52.182;8.716;2022-09-20T18:51:34;5.07;;;2.10;;
24567;SDS011;12731;52.182;8.716;2022-09-20T18:54:05;4.10;;;1.92;;
24567;SDS011;12731;52.182;8.716;2022-09-20T18:56:34;4.35;;;1.77;;
24567;SDS011;12731;52.182;8.716;2022-09-20T18:59:05;4.50;;;2.03;;
24567;SDS011;12731;52.182;8.716;2022-09-20T19:12:36;4.63;;;1.40;;
24567;SDS011;12731;52.182;8.716;2022-09-20T19:21:21;2.65;;;1.50;;
24567;SDS011;12731;52.182;8.716;2022-09-20T19:26:29;4.03;;;1.85;;
24567;SDS011;12731;52.182;8.716;2022-09-20T19:28:58;3.40;;;1.48;;
24567;SDS011;12731;52.182;8.716;2022-09-20T19:31:26;3.38;;;1.88;;
24567;SDS011;12731;52.182;8.716;2022-09-20T19:33:55;4.72;;;1.55;;
24567;SDS011;12731;52.182;8.716;2022-09-20T19:36:23;6.32;;;2.17;;
24567;SDS011;12731;52.182;8.716;2022-09-20T19:38:55;5.95;;;1.77;;
24567;SDS011;12731;52.182;8.716;2022-09-20T19:41:32;5.40;;;2.22;;
24567;SDS011;12731;52.182;8.716;2022-09-20T19:46:39;7.18;;;3.30;;
24567;SDS011;12731;52.182;8.716;2022-09-20T19:51:56;4.45;;;2.45;;
24567;SDS011;12731;52.182;8.716;2022-09-20T19:54:23;4.25;;;2.58;;
24567;SDS011;12731;52.182;8.716;2022-09-20T19:56:53;5.35;;;2.53;;
24567;SDS011;12731;52.182;8.716;2022-09-20T19:59:21;5.95;;;2.67;;
24567;SDS011;12731;52.182;8.716;2022-09-20T20:01:49;4.40;;;2.30;;
24567;SDS011;12731;52.182;8.716;2022-09-20T20:04:18;6.88;;;2.83;;
24567;SDS011;12731;52.182;8.716;2022-09-20T20:06:50;5.20;;;2.72;;
24567;SDS011;12731;52.182;8.716;2022-09-20T20:11:56;4.75;;;2.50;;
24567;SDS011;12731;52.182;8.716;2022-09-20T20:17:43;5.45;;;2.70;;
24567;SDS011;12731;52.182;8.716;2022-09-20T20:20:37;4.40;;;2.80;;
24567;SDS011;12731;52.182;8.716;2022-09-20T20:23:32;6.35;;;3.08;;
24567;SDS011;12731;52.182;8.716;2022-09-20T20:26:08;6.35;;;3.20;;
24567;SDS011;12731;52.182;8.716;2022-09-20T20:28:42;4.88;;;2.88;;
24567;SDS011;12731;52.182;8.716;2022-09-20T20:31:08;4.97;;;2.75;;